sensor_id;sensor_type;location;lat;lon;timestamp;temperature;humidity
72355;SHT30;60314;55.040;73.076;2022-08-03T00:01:43;13.86;77.73
72355;SHT30;60314;55.040;73.076;2022-08-03T00:04:10;13.94;77.58
72355;SHT30;60314;55.040;73.076;2022-08-03T00:06:37;14.06;76.98
72355;SHT30;60314;55.040;73.076;2022-08-03T00:09:04;14.09;76.83
72355;SHT30;60314;55.040;73.076;2022-08-03T00:11:31;14.13;76.74
72355;SHT30;60314;55.040;73.076;2022-08-03T00:14:04;14.10;76.79
72355;SHT30;60314;55.040;73.076;2022-08-03T00:16:41;14.09;76.93
72355;SHT30;60314;55.040;73.076;2022-08-03T00:19:07;14.14;76.90
72355;SHT30;60314;55.040;73.076;2022-08-03T00:21:44;14.14;76.89
72355;SHT30;60314;55.040;73.076;2022-08-03T00:24:11;14.16;77.11
72355;SHT30;60314;55.040;73.076;2022-08-03T00:26:38;14.31;76.89
72355;SHT30;60314;55.040;73.076;2022-08-03T00:29:04;14.40;76.68
72355;SHT30;60314;55.040;73.076;2022-08-03T00:31:31;14.52;76.78
72355;SHT30;60314;55.040;73.076;2022-08-03T00:33:57;14.69;76.24
72355;SHT30;60314;55.040;73.076;2022-08-03T00:40:27;14.92;75.36
72355;SHT30;60314;55.040;73.076;2022-08-03T00:42:56;15.06;74.92
72355;SHT30;60314;55.040;73.076;2022-08-03T00:45:28;15.16;74.48
72355;SHT30;60314;55.040;73.076;2022-08-03T00:48:00;15.18;74.52
72355;SHT30;60314;55.040;73.076;2022-08-03T00:50:29;15.23;74.47
72355;SHT30;60314;55.040;73.076;2022-08-03T00:52:58;15.29;74.66
72355;SHT30;60314;55.040;73.076;2022-08-03T00:55:35;15.34;74.51
72355;SHT30;60314;55.040;73.076;2022-08-03T00:58:08;15.44;74.65
72355;SHT30;60314;55.040;73.076;2022-08-03T01:00:45;15.55;74.33
72355;SHT30;60314;55.040;73.076;2022-08-03T01:03:16;15.77;73.78
72355;SHT30;60314;55.040;73.076;2022-08-03T01:05:51;15.92;73.26
72355;SHT30;60314;55.040;73.076;2022-08-03T01:08:58;16.00;72.44
72355;SHT30;60314;55.040;73.076;2022-08-03T01:11:50;16.22;71.62
72355;SHT30;60314;55.040;73.076;2022-08-03T01:19:49;16.48;71.03
72355;SHT30;60314;55.040;73.076;2022-08-03T01:31:15;16.43;71.02
72355;SHT30;60314;55.040;73.076;2022-08-03T01:33:49;16.52;71.30
72355;SHT30;60314;55.040;73.076;2022-08-03T01:36:23;16.55;71.32
72355;SHT30;60314;55.040;73.076;2022-08-03T01:39:03;16.67;70.66
72355;SHT30;60314;55.040;73.076;2022-08-03T01:41:39;16.60;71.54
72355;SHT30;60314;55.040;73.076;2022-08-03T01:44:09;16.69;70.64
72355;SHT30;60314;55.040;73.076;2022-08-03T01:46:38;16.69;71.44
72355;SHT30;60314;55.040;73.076;2022-08-03T01:49:10;16.83;71.87
72355;SHT30;60314;55.040;73.076;2022-08-03T01:51:41;16.91;70.57
72355;SHT30;60314;55.040;73.076;2022-08-03T01:54:12;17.03;69.72
72355;SHT30;60314;55.040;73.076;2022-08-03T01:56:40;17.06;69.92
72355;SHT30;60314;55.040;73.076;2022-08-03T01:59:09;17.06;70.30
72355;SHT30;60314;55.040;73.076;2022-08-03T02:01:37;17.21;70.23
72355;SHT30;60314;55.040;73.076;2022-08-03T02:04:06;17.11;69.82
72355;SHT30;60314;55.040;73.076;2022-08-03T02:06:35;17.20;69.92
72355;SHT30;60314;55.040;73.076;2022-08-03T02:09:02;17.34;70.20
72355;SHT30;60314;55.040;73.076;2022-08-03T02:11:34;17.51;69.44
72355;SHT30;60314;55.040;73.076;2022-08-03T02:14:04;17.72;69.25
72355;SHT30;60314;55.040;73.076;2022-08-03T02:16:36;17.96;67.99
72355;SHT30;60314;55.040;73.076;2022-08-03T02:19:04;18.18;67.19
72355;SHT30;60314;55.040;73.076;2022-08-03T02:21:37;18.37;65.86
72355;SHT30;60314;55.040;73.076;2022-08-03T02:24:04;18.48;66.15
72355;SHT30;60314;55.040;73.076;2022-08-03T02:26:34;18.65;65.23
72355;SHT30;60314;55.040;73.076;2022-08-03T02:29:05;18.77;64.44
72355;SHT30;60314;55.040;73.076;2022-08-03T02:31:44;18.92;62.52
72355;SHT30;60314;55.040;73.076;2022-08-03T02:34:13;18.95;64.33
72355;SHT30;60314;55.040;73.076;2022-08-03T02:36:42;19.04;63.40
72355;SHT30;60314;55.040;73.076;2022-08-03T02:39:18;19.11;62.58
72355;SHT30;60314;55.040;73.076;2022-08-03T02:41:51;19.15;62.42
72355;SHT30;60314;55.040;73.076;2022-08-03T02:44:24;19.16;61.54
72355;SHT30;60314;55.040;73.076;2022-08-03T02:47:13;19.11;62.58
72355;SHT30;60314;55.040;73.076;2022-08-03T02:49:59;19.07;62.84
72355;SHT30;60314;55.040;73.076;2022-08-03T02:53:03;19.25;63.28
72355;SHT30;60314;55.040;73.076;2022-08-03T02:55:40;19.33;63.61
72355;SHT30;60314;55.040;73.076;2022-08-03T02:58:08;19.52;61.29
72355;SHT30;60314;55.040;73.076;2022-08-03T03:00:39;19.60;60.43
72355;SHT30;60314;55.040;73.076;2022-08-03T03:03:17;19.69;60.72
72355;SHT30;60314;55.040;73.076;2022-08-03T03:05:44;19.39;61.82
72355;SHT30;60314;55.040;73.076;2022-08-03T03:08:13;19.46;62.33
72355;SHT30;60314;55.040;73.076;2022-08-03T03:10:45;19.60;60.87
72355;SHT30;60314;55.040;73.076;2022-08-03T03:13:36;19.67;60.11
72355;SHT30;60314;55.040;73.076;2022-08-03T03:16:05;19.84;60.89
72355;SHT30;60314;55.040;73.076;2022-08-03T03:18:34;20.13;58.75
72355;SHT30;60314;55.040;73.076;2022-08-03T03:21:02;20.20;58.68
72355;SHT30;60314;55.040;73.076;2022-08-03T03:23:30;20.24;58.87
72355;SHT30;60314;55.040;73.076;2022-08-03T03:25:57;20.37;58.54
72355;SHT30;60314;55.040;73.076;2022-08-03T03:28:24;20.55;56.76
72355;SHT30;60314;55.040;73.076;2022-08-03T03:30:56;20.58;57.24
72355;SHT30;60314;55.040;73.076;2022-08-03T03:33:23;20.69;57.98
72355;SHT30;60314;55.040;73.076;2022-08-03T03:35:50;20.80;54.75
72355;SHT30;60314;55.040;73.076;2022-08-03T03:38:28;20.86;55.31
72355;SHT30;60314;55.040;73.076;2022-08-03T03:40:55;20.96;54.15
72355;SHT30;60314;55.040;73.076;2022-08-03T03:43:22;21.02;55.13
72355;SHT30;60314;55.040;73.076;2022-08-03T03:45:57;21.18;55.50
72355;SHT30;60314;55.040;73.076;2022-08-03T03:48:29;21.31;53.53
72355;SHT30;60314;55.040;73.076;2022-08-03T03:50:56;21.43;54.94
72355;SHT30;60314;55.040;73.076;2022-08-03T03:53:23;21.57;53.09
72355;SHT30;60314;55.040;73.076;2022-08-03T03:55:51;21.65;54.33
72355;SHT30;60314;55.040;73.076;2022-08-03T03:58:19;21.77;52.54
72355;SHT30;60314;55.040;73.076;2022-08-03T04:00:46;21.80;50.84
72355;SHT30;60314;55.040;73.076;2022-08-03T04:03:23;21.80;52.21
72355;SHT30;60314;55.040;73.076;2022-08-03T04:05:49;21.87;51.22
72355;SHT30;60314;55.040;73.076;2022-08-03T04:08:35;21.91;50.86
72355;SHT30;60314;55.040;73.076;2022-08-03T04:11:35;22.04;50.75
72355;SHT30;60314;55.040;73.076;2022-08-03T04:14:13;22.11;51.41
72355;SHT30;60314;55.040;73.076;2022-08-03T04:16:50;22.08;50.22
72355;SHT30;60314;55.040;73.076;2022-08-03T04:19:36;22.18;48.90
72355;SHT30;60314;55.040;73.076;2022-08-03T04:22:07;22.22;48.37
72355;SHT30;60314;55.040;73.076;2022-08-03T04:24:46;22.35;50.04
72355;SHT30;60314;55.040;73.076;2022-08-03T04:27:17;22.43;48.04
72355;SHT30;60314;55.040;73.076;2022-08-03T04:29:52;22.39;48.06
72355;SHT30;60314;55.040;73.076;2022-08-03T04:32:30;22.42;49.10
72355;SHT30;60314;55.040;73.076;2022-08-03T04:34:59;22.46;46.39
72355;SHT30;60314;55.040;73.076;2022-08-03T04:37:38;22.50;48.83
72355;SHT30;60314;55.040;73.076;2022-08-03T04:40:09;22.60;46.00
72355;SHT30;60314;55.040;73.076;2022-08-03T04:42:37;22.57;47.46
72355;SHT30;60314;55.040;73.076;2022-08-03T04:45:23;22.66;47.50
72355;SHT30;60314;55.040;73.076;2022-08-03T04:48:00;22.70;48.61
72355;SHT30;60314;55.040;73.076;2022-08-03T04:50:27;22.59;47.01
72355;SHT30;60314;55.040;73.076;2022-08-03T04:53:04;22.53;45.10
72355;SHT30;60314;55.040;73.076;2022-08-03T04:55:41;22.48;44.20
72355;SHT30;60314;55.040;73.076;2022-08-03T04:58:08;22.42;44.99
72355;SHT30;60314;55.040;73.076;2022-08-03T05:00:34;22.42;45.22
72355;SHT30;60314;55.040;73.076;2022-08-03T05:03:06;22.42;44.56
72355;SHT30;60314;55.040;73.076;2022-08-03T05:05:32;22.45;43.89
72355;SHT30;60314;55.040;73.076;2022-08-03T05:07:59;22.22;44.77
72355;SHT30;60314;55.040;73.076;2022-08-03T05:10:35;22.12;45.18
72355;SHT30;60314;55.040;73.076;2022-08-03T05:13:02;21.94;44.01
72355;SHT30;60314;55.040;73.076;2022-08-03T05:15:29;21.81;44.30
72355;SHT30;60314;55.040;73.076;2022-08-03T05:17:55;21.65;44.33
72355;SHT30;60314;55.040;73.076;2022-08-03T05:20:23;21.74;45.83
72355;SHT30;60314;55.040;73.076;2022-08-03T05:22:50;21.58;46.60
72355;SHT30;60314;55.040;73.076;2022-08-03T05:25:16;21.73;46.74
72355;SHT30;60314;55.040;73.076;2022-08-03T05:28:01;21.88;47.10
72355;SHT30;60314;55.040;73.076;2022-08-03T05:30:38;21.92;45.30
72355;SHT30;60314;55.040;73.076;2022-08-03T05:33:05;21.84;46.55
72355;SHT30;60314;55.040;73.076;2022-08-03T05:35:31;21.91;46.45
72355;SHT30;60314;55.040;73.076;2022-08-03T05:38:01;21.84;47.41
72355;SHT30;60314;55.040;73.076;2022-08-03T05:40:28;21.85;47.08
72355;SHT30;60314;55.040;73.076;2022-08-03T05:43:01;21.82;46.55
72355;SHT30;60314;55.040;73.076;2022-08-03T05:45:27;21.75;46.96
72355;SHT30;60314;55.040;73.076;2022-08-03T05:48:04;21.88;48.18
72355;SHT30;60314;55.040;73.076;2022-08-03T05:50:31;22.01;47.01
72355;SHT30;60314;55.040;73.076;2022-08-03T05:52:58;22.09;45.62
72355;SHT30;60314;55.040;73.076;2022-08-03T05:55:30;22.01;45.65
72355;SHT30;60314;55.040;73.076;2022-08-03T05:57:56;22.09;45.63
72355;SHT30;60314;55.040;73.076;2022-08-03T06:00:22;22.11;45.84
72355;SHT30;60314;55.040;73.076;2022-08-03T06:02:49;22.16;45.99
72355;SHT30;60314;55.040;73.076;2022-08-03T06:05:16;22.12;45.41
72355;SHT30;60314;55.040;73.076;2022-08-03T06:07:47;22.15;44.56
72355;SHT30;60314;55.040;73.076;2022-08-03T06:10:24;22.13;44.35
72355;SHT30;60314;55.040;73.076;2022-08-03T06:12:50;22.22;43.96
72355;SHT30;60314;55.040;73.076;2022-08-03T06:15:17;22.25;45.56
72355;SHT30;60314;55.040;73.076;2022-08-03T06:17:54;22.35;45.83
72355;SHT30;60314;55.040;73.076;2022-08-03T06:20:22;22.45;46.08
72355;SHT30;60314;55.040;73.076;2022-08-03T06:22:50;22.43;45.03
72355;SHT30;60314;55.040;73.076;2022-08-03T06:25:17;22.53;44.52
72355;SHT30;60314;55.040;73.076;2022-08-03T06:27:52;22.42;44.56
72355;SHT30;60314;55.040;73.076;2022-08-03T06:30:18;22.49;44.87
72355;SHT30;60314;55.040;73.076;2022-08-03T06:32:45;22.49;44.98
72355;SHT30;60314;55.040;73.076;2022-08-03T06:35:22;22.45;44.52
72355;SHT30;60314;55.040;73.076;2022-08-03T06:37:49;22.49;43.42
72355;SHT30;60314;55.040;73.076;2022-08-03T06:40:21;22.46;44.12
72355;SHT30;60314;55.040;73.076;2022-08-03T06:42:59;22.59;45.83
72355;SHT30;60314;55.040;73.076;2022-08-03T06:45:26;22.67;44.98
72355;SHT30;60314;55.040;73.076;2022-08-03T06:48:05;22.70;44.93
72355;SHT30;60314;55.040;73.076;2022-08-03T06:50:36;22.67;43.51
72355;SHT30;60314;55.040;73.076;2022-08-03T06:53:32;22.66;43.89
72355;SHT30;60314;55.040;73.076;2022-08-03T06:55:59;22.67;43.39
72355;SHT30;60314;55.040;73.076;2022-08-03T06:58:25;22.70;43.55
72355;SHT30;60314;55.040;73.076;2022-08-03T07:00:51;22.69;44.59
72355;SHT30;60314;55.040;73.076;2022-08-03T07:03:18;22.72;47.43
72355;SHT30;60314;55.040;73.076;2022-08-03T07:05:45;22.93;46.18
72355;SHT30;60314;55.040;73.076;2022-08-03T07:08:13;22.97;44.89
72355;SHT30;60314;55.040;73.076;2022-08-03T07:10:39;23.08;44.86
72355;SHT30;60314;55.040;73.076;2022-08-03T07:13:06;22.99;45.10
72355;SHT30;60314;55.040;73.076;2022-08-03T07:15:33;23.04;45.40
72355;SHT30;60314;55.040;73.076;2022-08-03T07:18:00;22.97;45.18
72355;SHT30;60314;55.040;73.076;2022-08-03T07:20:27;23.00;46.93
72355;SHT30;60314;55.040;73.076;2022-08-03T07:22:58;23.11;45.76
72355;SHT30;60314;55.040;73.076;2022-08-03T07:25:25;23.11;43.14
72355;SHT30;60314;55.040;73.076;2022-08-03T07:27:51;23.00;43.91
72355;SHT30;60314;55.040;73.076;2022-08-03T07:30:18;22.91;43.66
72355;SHT30;60314;55.040;73.076;2022-08-03T07:32:47;22.86;43.33
72355;SHT30;60314;55.040;73.076;2022-08-03T07:35:29;22.90;46.35
72355;SHT30;60314;55.040;73.076;2022-08-03T07:37:55;22.90;45.04
72355;SHT30;60314;55.040;73.076;2022-08-03T07:40:22;23.08;44.95
72355;SHT30;60314;55.040;73.076;2022-08-03T07:42:58;23.17;46.43
72355;SHT30;60314;55.040;73.076;2022-08-03T07:45:25;23.20;43.57
72355;SHT30;60314;55.040;73.076;2022-08-03T07:47:53;23.14;43.47
72355;SHT30;60314;55.040;73.076;2022-08-03T07:50:19;23.14;44.17
72355;SHT30;60314;55.040;73.076;2022-08-03T07:52:46;23.18;45.38
72355;SHT30;60314;55.040;73.076;2022-08-03T07:55:35;23.14;44.44
72355;SHT30;60314;55.040;73.076;2022-08-03T07:58:20;23.08;45.19
72355;SHT30;60314;55.040;73.076;2022-08-03T08:00:48;23.11;46.34
72355;SHT30;60314;55.040;73.076;2022-08-03T08:03:18;23.18;43.74
72355;SHT30;60314;55.040;73.076;2022-08-03T08:05:44;23.17;43.02
72355;SHT30;60314;55.040;73.076;2022-08-03T08:08:11;23.24;44.50
72355;SHT30;60314;55.040;73.076;2022-08-03T08:10:38;23.27;43.67
72355;SHT30;60314;55.040;73.076;2022-08-03T08:13:05;23.20;44.54
72355;SHT30;60314;55.040;73.076;2022-08-03T08:15:31;23.24;44.78
72355;SHT30;60314;55.040;73.076;2022-08-03T08:17:59;23.18;45.00
72355;SHT30;60314;55.040;73.076;2022-08-03T08:20:30;23.20;44.80
72355;SHT30;60314;55.040;73.076;2022-08-03T08:23:02;23.20;43.06
72355;SHT30;60314;55.040;73.076;2022-08-03T08:25:30;23.18;43.67
72355;SHT30;60314;55.040;73.076;2022-08-03T08:27:57;23.25;43.86
72355;SHT30;60314;55.040;73.076;2022-08-03T08:30:32;23.30;43.27
72355;SHT30;60314;55.040;73.076;2022-08-03T08:32:59;23.24;44.29
72355;SHT30;60314;55.040;73.076;2022-08-03T08:35:26;23.32;45.89
72355;SHT30;60314;55.040;73.076;2022-08-03T08:37:52;23.35;45.10
72355;SHT30;60314;55.040;73.076;2022-08-03T08:40:21;23.42;45.61
72355;SHT30;60314;55.040;73.076;2022-08-03T08:42:48;23.47;43.76
72355;SHT30;60314;55.040;73.076;2022-08-03T08:45:19;23.51;43.96
72355;SHT30;60314;55.040;73.076;2022-08-03T08:47:47;23.37;43.71
72355;SHT30;60314;55.040;73.076;2022-08-03T08:50:20;23.37;44.94
72355;SHT30;60314;55.040;73.076;2022-08-03T08:52:55;23.48;43.87
72355;SHT30;60314;55.040;73.076;2022-08-03T08:55:24;23.38;44.78
72355;SHT30;60314;55.040;73.076;2022-08-03T08:57:56;23.52;45.26
72355;SHT30;60314;55.040;73.076;2022-08-03T09:00:27;23.64;46.36
72355;SHT30;60314;55.040;73.076;2022-08-03T09:02:53;23.66;43.05
72355;SHT30;60314;55.040;73.076;2022-08-03T09:05:20;23.58;43.73
72355;SHT30;60314;55.040;73.076;2022-08-03T09:07:57;23.62;42.95
72355;SHT30;60314;55.040;73.076;2022-08-03T09:10:24;23.58;43.64
72355;SHT30;60314;55.040;73.076;2022-08-03T09:12:51;23.61;45.18
72355;SHT30;60314;55.040;73.076;2022-08-03T09:15:26;23.71;44.12
72355;SHT30;60314;55.040;73.076;2022-08-03T09:17:55;23.73;44.49
72355;SHT30;60314;55.040;73.076;2022-08-03T09:20:24;23.73;44.11
72355;SHT30;60314;55.040;73.076;2022-08-03T09:28:17;23.66;44.35
72355;SHT30;60314;55.040;73.076;2022-08-03T09:30:56;23.79;44.14
72355;SHT30;60314;55.040;73.076;2022-08-03T09:33:23;23.90;45.28
72355;SHT30;60314;55.040;73.076;2022-08-03T09:35:50;23.92;44.15
72355;SHT30;60314;55.040;73.076;2022-08-03T09:38:23;23.86;43.96
72355;SHT30;60314;55.040;73.076;2022-08-03T09:40:51;23.93;43.91
72355;SHT30;60314;55.040;73.076;2022-08-03T09:43:18;23.98;43.11
72355;SHT30;60314;55.040;73.076;2022-08-03T09:45:48;23.98;43.70
72355;SHT30;60314;55.040;73.076;2022-08-03T09:48:22;23.98;41.52
72355;SHT30;60314;55.040;73.076;2022-08-03T09:50:55;23.95;42.97
72355;SHT30;60314;55.040;73.076;2022-08-03T09:53:22;24.09;44.70
72355;SHT30;60314;55.040;73.076;2022-08-03T09:55:56;24.09;44.26
72355;SHT30;60314;55.040;73.076;2022-08-03T09:58:29;24.06;43.47
72355;SHT30;60314;55.040;73.076;2022-08-03T10:01:04;24.01;43.92
72355;SHT30;60314;55.040;73.076;2022-08-03T10:03:33;24.01;44.50
72355;SHT30;60314;55.040;73.076;2022-08-03T10:06:14;23.98;43.47
72355;SHT30;60314;55.040;73.076;2022-08-03T10:08:41;23.96;42.76
72355;SHT30;60314;55.040;73.076;2022-08-03T10:11:07;23.95;42.78
72355;SHT30;60314;55.040;73.076;2022-08-03T10:13:35;24.02;44.67
72355;SHT30;60314;55.040;73.076;2022-08-03T10:16:02;24.02;43.96
72355;SHT30;60314;55.040;73.076;2022-08-03T10:18:29;24.08;43.30
72355;SHT30;60314;55.040;73.076;2022-08-03T10:21:07;24.05;42.82
72355;SHT30;60314;55.040;73.076;2022-08-03T10:23:36;24.09;42.12
72355;SHT30;60314;55.040;73.076;2022-08-03T10:26:06;24.05;43.76
72355;SHT30;60314;55.040;73.076;2022-08-03T10:28:34;24.05;42.31
72355;SHT30;60314;55.040;73.076;2022-08-03T10:31:12;24.05;44.21
72355;SHT30;60314;55.040;73.076;2022-08-03T10:33:43;24.12;43.34
72355;SHT30;60314;55.040;73.076;2022-08-03T10:36:22;24.13;44.11
72355;SHT30;60314;55.040;73.076;2022-08-03T10:38:50;24.16;43.37
72355;SHT30;60314;55.040;73.076;2022-08-03T10:41:24;24.10;44.17
72355;SHT30;60314;55.040;73.076;2022-08-03T10:44:14;24.12;43.08
72355;SHT30;60314;55.040;73.076;2022-08-03T10:46:44;24.14;43.68
72355;SHT30;60314;55.040;73.076;2022-08-03T10:49:19;24.22;42.57
72355;SHT30;60314;55.040;73.076;2022-08-03T10:51:47;24.22;43.37
72355;SHT30;60314;55.040;73.076;2022-08-03T10:54:37;24.17;41.75
72355;SHT30;60314;55.040;73.076;2022-08-03T10:57:49;24.12;44.05
72355;SHT30;60314;55.040;73.076;2022-08-03T11:00:20;24.13;43.73
72355;SHT30;60314;55.040;73.076;2022-08-03T11:03:12;24.14;41.11
72355;SHT30;60314;55.040;73.076;2022-08-03T11:05:46;24.05;40.67
72355;SHT30;60314;55.040;73.076;2022-08-03T11:08:30;24.03;41.33
72355;SHT30;60314;55.040;73.076;2022-08-03T11:13:57;24.08;42.52
72355;SHT30;60314;55.040;73.076;2022-08-03T11:16:26;24.08;43.52
72355;SHT30;60314;55.040;73.076;2022-08-03T11:19:04;24.09;41.64
72355;SHT30;60314;55.040;73.076;2022-08-03T11:27:21;24.08;42.17
72355;SHT30;60314;55.040;73.076;2022-08-03T11:40:42;24.08;43.05
72355;SHT30;60314;55.040;73.076;2022-08-03T11:45:57;24.09;43.58
72355;SHT30;60314;55.040;73.076;2022-08-03T11:48:37;24.08;43.48
72355;SHT30;60314;55.040;73.076;2022-08-03T11:51:07;24.06;43.52
72355;SHT30;60314;55.040;73.076;2022-08-03T11:53:43;24.06;44.95
72355;SHT30;60314;55.040;73.076;2022-08-03T11:56:12;24.10;44.58
72355;SHT30;60314;55.040;73.076;2022-08-03T11:58:49;24.06;44.10
72355;SHT30;60314;55.040;73.076;2022-08-03T12:01:18;24.03;44.80
72355;SHT30;60314;55.040;73.076;2022-08-03T12:03:45;24.06;44.51
72355;SHT30;60314;55.040;73.076;2022-08-03T12:06:13;24.01;44.25
72355;SHT30;60314;55.040;73.076;2022-08-03T12:08:42;24.01;44.56
72355;SHT30;60314;55.040;73.076;2022-08-03T12:11:12;23.99;44.36
72355;SHT30;60314;55.040;73.076;2022-08-03T12:13:47;23.93;43.21
72355;SHT30;60314;55.040;73.076;2022-08-03T12:16:24;23.93;45.16
72355;SHT30;60314;55.040;73.076;2022-08-03T12:18:58;23.86;44.83
72355;SHT30;60314;55.040;73.076;2022-08-03T12:21:30;23.89;45.51
72355;SHT30;60314;55.040;73.076;2022-08-03T12:24:01;23.92;45.20
72355;SHT30;60314;55.040;73.076;2022-08-03T12:26:29;23.93;45.85
72355;SHT30;60314;55.040;73.076;2022-08-03T12:28:56;23.96;46.80
72355;SHT30;60314;55.040;73.076;2022-08-03T12:31:23;23.92;45.19
72355;SHT30;60314;55.040;73.076;2022-08-03T12:33:59;23.89;45.50
72355;SHT30;60314;55.040;73.076;2022-08-03T12:36:52;23.82;45.62
72355;SHT30;60314;55.040;73.076;2022-08-03T12:39:23;23.81;46.47
72355;SHT30;60314;55.040;73.076;2022-08-03T12:41:54;23.75;45.73
72355;SHT30;60314;55.040;73.076;2022-08-03T12:44:34;23.75;45.68
72355;SHT30;60314;55.040;73.076;2022-08-03T12:47:02;23.73;46.00
72355;SHT30;60314;55.040;73.076;2022-08-03T12:49:50;23.76;45.53
72355;SHT30;60314;55.040;73.076;2022-08-03T12:52:19;23.71;45.57
72355;SHT30;60314;55.040;73.076;2022-08-03T12:54:59;23.64;45.72
72355;SHT30;60314;55.040;73.076;2022-08-03T12:57:39;23.61;47.03
72355;SHT30;60314;55.040;73.076;2022-08-03T13:00:11;23.65;47.66
72355;SHT30;60314;55.040;73.076;2022-08-03T13:02:38;23.66;46.74
72355;SHT30;60314;55.040;73.076;2022-08-03T13:05:14;23.62;47.45
72355;SHT30;60314;55.040;73.076;2022-08-03T13:07:44;23.65;47.83
72355;SHT30;60314;55.040;73.076;2022-08-03T13:10:31;23.59;47.91
72355;SHT30;60314;55.040;73.076;2022-08-03T13:13:02;23.55;47.88
72355;SHT30;60314;55.040;73.076;2022-08-03T13:15:29;23.51;47.82
72355;SHT30;60314;55.040;73.076;2022-08-03T13:17:56;23.44;48.19
72355;SHT30;60314;55.040;73.076;2022-08-03T13:20:23;23.42;48.61
72355;SHT30;60314;55.040;73.076;2022-08-03T13:22:50;23.42;48.50
72355;SHT30;60314;55.040;73.076;2022-08-03T13:25:17;23.37;48.40
72355;SHT30;60314;55.040;73.076;2022-08-03T13:27:43;23.30;48.20
72355;SHT30;60314;55.040;73.076;2022-08-03T13:30:11;23.23;49.23
72355;SHT30;60314;55.040;73.076;2022-08-03T13:32:37;23.20;49.01
72355;SHT30;60314;55.040;73.076;2022-08-03T13:35:05;23.13;48.94
72355;SHT30;60314;55.040;73.076;2022-08-03T13:37:33;23.10;49.15
72355;SHT30;60314;55.040;73.076;2022-08-03T13:40:00;23.08;49.81
72355;SHT30;60314;55.040;73.076;2022-08-03T13:42:37;23.06;50.03
72355;SHT30;60314;55.040;73.076;2022-08-03T13:45:04;23.01;49.30
72355;SHT30;60314;55.040;73.076;2022-08-03T13:47:31;22.96;50.01
72355;SHT30;60314;55.040;73.076;2022-08-03T13:49:58;22.94;49.80
72355;SHT30;60314;55.040;73.076;2022-08-03T13:52:24;22.90;50.70
72355;SHT30;60314;55.040;73.076;2022-08-03T13:54:51;22.87;50.03
72355;SHT30;60314;55.040;73.076;2022-08-03T13:57:17;22.79;50.32
72355;SHT30;60314;55.040;73.076;2022-08-03T13:59:44;22.76;51.05
72355;SHT30;60314;55.040;73.076;2022-08-03T14:05:00;22.66;51.57
72355;SHT30;60314;55.040;73.076;2022-08-03T14:07:27;22.60;51.73
72355;SHT30;60314;55.040;73.076;2022-08-03T14:09:54;22.56;52.08
72355;SHT30;60314;55.040;73.076;2022-08-03T14:12:20;22.53;51.93
72355;SHT30;60314;55.040;73.076;2022-08-03T14:14:46;22.46;52.37
72355;SHT30;60314;55.040;73.076;2022-08-03T14:17:13;22.43;52.52
72355;SHT30;60314;55.040;73.076;2022-08-03T14:19:39;22.42;52.52
72355;SHT30;60314;55.040;73.076;2022-08-03T14:22:06;22.36;52.48
72355;SHT30;60314;55.040;73.076;2022-08-03T14:24:32;22.29;52.77
72355;SHT30;60314;55.040;73.076;2022-08-03T14:26:59;22.29;52.81
72355;SHT30;60314;55.040;73.076;2022-08-03T14:29:25;22.23;52.99
72355;SHT30;60314;55.040;73.076;2022-08-03T14:31:52;22.13;53.75
72355;SHT30;60314;55.040;73.076;2022-08-03T14:34:18;22.06;54.03
72355;SHT30;60314;55.040;73.076;2022-08-03T14:36:44;22.00;54.36
72355;SHT30;60314;55.040;73.076;2022-08-03T14:39:12;21.92;54.42
72355;SHT30;60314;55.040;73.076;2022-08-03T14:41:39;21.88;55.02
72355;SHT30;60314;55.040;73.076;2022-08-03T14:44:05;21.78;54.96
72355;SHT30;60314;55.040;73.076;2022-08-03T14:46:33;21.71;55.57
72355;SHT30;60314;55.040;73.076;2022-08-03T14:48:59;21.64;56.02
72355;SHT30;60314;55.040;73.076;2022-08-03T14:51:26;21.53;56.26
72355;SHT30;60314;55.040;73.076;2022-08-03T14:53:54;21.49;56.23
72355;SHT30;60314;55.040;73.076;2022-08-03T14:56:21;21.41;56.55
72355;SHT30;60314;55.040;73.076;2022-08-03T14:58:47;21.36;56.92
72355;SHT30;60314;55.040;73.076;2022-08-03T15:01:14;21.33;57.08
72355;SHT30;60314;55.040;73.076;2022-08-03T15:03:40;21.26;57.31
72355;SHT30;60314;55.040;73.076;2022-08-03T15:06:07;21.22;57.55
72355;SHT30;60314;55.040;73.076;2022-08-03T15:08:33;21.13;58.18
72355;SHT30;60314;55.040;73.076;2022-08-03T15:11:10;21.06;58.61
72355;SHT30;60314;55.040;73.076;2022-08-03T15:13:36;21.00;58.90
72355;SHT30;60314;55.040;73.076;2022-08-03T15:16:03;20.93;58.86
72355;SHT30;60314;55.040;73.076;2022-08-03T15:18:29;20.88;59.39
72355;SHT30;60314;55.040;73.076;2022-08-03T15:20:56;20.80;59.30
72355;SHT30;60314;55.040;73.076;2022-08-03T15:23:22;20.79;59.26
72355;SHT30;60314;55.040;73.076;2022-08-03T15:25:49;20.69;59.29
72355;SHT30;60314;55.040;73.076;2022-08-03T15:28:15;20.69;59.33
72355;SHT30;60314;55.040;73.076;2022-08-03T15:30:52;20.61;59.79
72355;SHT30;60314;55.040;73.076;2022-08-03T15:33:19;20.56;60.05
72355;SHT30;60314;55.040;73.076;2022-08-03T15:35:45;20.42;61.16
72355;SHT30;60314;55.040;73.076;2022-08-03T15:38:12;20.34;61.03
72355;SHT30;60314;55.040;73.076;2022-08-03T15:40:39;20.21;61.72
72355;SHT30;60314;55.040;73.076;2022-08-03T15:43:05;20.11;61.97
72355;SHT30;60314;55.040;73.076;2022-08-03T15:45:32;20.00;62.36
72355;SHT30;60314;55.040;73.076;2022-08-03T15:47:58;19.87;63.03
72355;SHT30;60314;55.040;73.076;2022-08-03T15:50:30;19.73;63.16
72355;SHT30;60314;55.040;73.076;2022-08-03T15:52:57;19.70;63.07
72355;SHT30;60314;55.040;73.076;2022-08-03T15:55:23;19.62;62.89
72355;SHT30;60314;55.040;73.076;2022-08-03T15:57:50;19.63;63.47
72355;SHT30;60314;55.040;73.076;2022-08-03T16:00:16;19.62;63.43
72355;SHT30;60314;55.040;73.076;2022-08-03T16:02:43;19.62;63.90
72355;SHT30;60314;55.040;73.076;2022-08-03T16:05:10;19.60;63.60
72355;SHT30;60314;55.040;73.076;2022-08-03T16:07:36;19.60;63.70
72355;SHT30;60314;55.040;73.076;2022-08-03T16:10:17;19.55;63.74
72355;SHT30;60314;55.040;73.076;2022-08-03T16:12:44;19.52;63.41
72355;SHT30;60314;55.040;73.076;2022-08-03T16:15:12;19.48;63.24
72355;SHT30;60314;55.040;73.076;2022-08-03T16:17:39;19.40;63.52
72355;SHT30;60314;55.040;73.076;2022-08-03T16:20:08;19.39;63.35
72355;SHT30;60314;55.040;73.076;2022-08-03T16:22:43;19.38;63.69
72355;SHT30;60314;55.040;73.076;2022-08-03T16:25:10;19.30;63.80
72355;SHT30;60314;55.040;73.076;2022-08-03T16:27:37;19.23;63.94